Time;durP1;ratioP1;P1;durP2;ratioP2;P2;SDS_P1;SDS_P2;PMS_P1;PMS_P2;Temp;Humidity;BMP_temperature;BMP_pressure;BME280_temperature;BME280_humidity;BME280_pressure;Samples;Min_cycle;Max_cycle;Signal;HPM_P1;HPM_P2
2022/07/24 00:00:43;;;;;;;0.00;0.00;;;25.50;45.50;;;;;;5115805;28;20113;-73
2022/07/24 00:03:09;;;;;;;0.00;0.00;;;25.60;45.80;;;;;;5097686;28;20487;-73
2022/07/24 00:05:35;;;;;;;0.00;0.00;;;25.30;45.90;;;;;;5097414;28;20028;-73
2022/07/24 00:08:02;;;;;;;0.00;0.00;;;25.20;45.90;;;;;;5115769;28;20107;-73
2022/07/24 00:10:28;;;;;;;0.00;0.00;;;25.20;47.00;;;;;;5115413;28;20063;-73
2022/07/24 00:12:54;;;;;;;0.00;0.00;;;25.40;45.00;;;;;;5114583;28;20038;-73
2022/07/24 00:15:20;;;;;;;0.00;0.00;;;25.70;45.30;;;;;;5097241;28;20034;-73
2022/07/24 00:17:46;;;;;;;0.00;0.00;;;25.80;45.40;;;;;;5115824;28;20032;-73
2022/07/24 00:20:12;;;;;;;0.00;0.00;;;25.80;46.60;;;;;;5097018;28;20047;-73
2022/07/24 00:22:38;;;;;;;0.00;0.00;;;25.90;47.40;;;;;;5115468;28;20093;-73
2022/07/24 00:25:04;;;;;;;0.00;0.00;;;25.80;45.50;;;;;;5116011;28;20023;-73
2022/07/24 00:27:30;;;;;;;0.00;0.00;;;26.00;45.50;;;;;;5117082;28;20016;-72
2022/07/24 00:29:56;;;;;;;0.00;0.00;;;26.00;45.50;;;;;;5118848;28;20031;-72
2022/07/24 00:32:22;;;;;;;0.00;0.00;;;25.80;46.00;;;;;;5099944;28;20046;-72
2022/07/24 00:34:48;;;;;;;0.00;0.00;;;25.90;45.40;;;;;;5117913;28;20043;-72
2022/07/24 00:37:14;;;;;;;0.00;0.00;;;25.80;46.40;;;;;;5119054;28;20464;-73
2022/07/24 00:39:40;;;;;;;0.00;0.00;;;25.70;47.90;;;;;;5099268;28;20031;-72
2022/07/24 00:42:06;;;;;;;0.00;0.00;;;25.90;46.90;;;;;;5096991;28;20028;-72
2022/07/24 00:44:32;;;;;;;0.00;0.00;;;26.10;47.20;;;;;;5115312;28;20098;-72
2022/07/24 00:46:58;;;;;;;0.00;0.00;;;26.20;45.30;;;;;;5115017;28;20023;-72
2022/07/24 00:49:24;;;;;;;0.25;0.25;;;26.60;43.00;;;;;;5096518;28;20115;-72
2022/07/24 00:51:52;;;;;;;0.00;0.00;;;26.70;42.50;;;;;;5096484;28;20114;-73
2022/07/24 00:54:21;;;;;;;0.00;0.00;;;26.90;43.00;;;;;;5096518;28;20023;-72
2022/07/24 00:56:48;;;;;;;0.00;0.00;;;27.00;44.10;;;;;;5114605;28;20035;-72
2022/07/24 00:59:15;;;;;;;0.00;0.00;;;27.00;43.20;;;;;;5114660;28;20540;-72
2022/07/24 01:01:42;;;;;;;0.00;0.00;;;26.60;46.00;;;;;;5114669;28;20023;-72
2022/07/24 01:04:08;;;;;;;0.00;0.00;;;26.60;44.30;;;;;;5096357;28;20031;-72
2022/07/24 01:06:34;;;;;;;0.00;0.00;;;27.00;44.80;;;;;;5096287;28;20024;-72
2022/07/24 01:09:01;;;;;;;0.00;0.00;;;27.20;45.30;;;;;;5096187;28;20039;-72
2022/07/24 01:11:28;;;;;;;0.00;0.00;;;27.40;45.60;;;;;;5096184;28;20114;-72
2022/07/24 01:13:54;;;;;;;0.00;0.00;;;27.20;46.30;;;;;;5114381;28;20030;-72
2022/07/24 01:16:20;;;;;;;0.00;0.00;;;27.50;45.30;;;;;;5114384;28;20024;-72
2022/07/24 01:18:46;;;;;;;0.10;0.10;;;27.90;45.70;;;;;;5095983;28;20020;-72
2022/07/24 01:21:12;;;;;;;0.00;0.00;;;28.20;44.70;;;;;;5114244;28;20024;-72
2022/07/24 01:23:38;;;;;;;0.00;0.00;;;28.50;44.20;;;;;;5095933;28;20023;-73
2022/07/24 01:26:08;;;;;;;0.00;0.00;;;28.80;43.90;;;;;;5114416;28;20024;-72
2022/07/24 01:28:35;;;;;;;0.80;0.80;;;28.80;43.50;;;;;;5114069;28;20024;-72
2022/07/24 01:31:02;;;;;;;0.00;0.00;;;28.90;43.10;;;;;;5111629;28;20023;-72
2022/07/24 01:33:28;;;;;;;0.00;0.00;;;29.10;42.90;;;;;;5096367;28;20043;-73
2022/07/24 01:35:54;;;;;;;0.00;0.00;;;28.80;43.90;;;;;;5095500;28;20020;-72
2022/07/24 01:38:20;;;;;;;0.00;0.00;;;28.20;45.30;;;;;;5088422;28;20025;-72
2022/07/24 01:40:46;;;;;;;0.00;0.00;;;28.10;45.90;;;;;;5077993;28;20025;-72
2022/07/24 01:43:12;;;;;;;0.00;0.00;;;28.00;46.40;;;;;;5076107;28;20431;-72
2022/07/24 01:45:38;;;;;;;0.00;0.00;;;27.90;47.20;;;;;;5071788;28;20032;-72
2022/07/24 01:48:04;;;;;;;0.00;0.00;;;27.90;47.90;;;;;;5073100;28;20024;-71
2022/07/24 01:50:31;;;;;;;0.00;0.00;;;28.00;47.10;;;;;;5058559;28;20073;-72
2022/07/24 01:52:57;;;;;;;0.00;0.00;;;28.30;45.80;;;;;;5093059;28;20093;-72
2022/07/24 01:55:23;;;;;;;2.15;2.10;;;28.40;46.70;;;;;;5074339;28;20496;-72
2022/07/24 01:57:49;;;;;;;0.00;0.00;;;28.50;43.70;;;;;;5077353;28;20040;-72
2022/07/24 02:00:16;;;;;;;0.00;0.00;;;28.30;47.20;;;;;;5075802;28;20043;-72
2022/07/24 02:02:44;;;;;;;0.00;0.00;;;28.10;47.80;;;;;;5073400;28;20023;-72
2022/07/24 02:05:14;;;;;;;0.00;0.00;;;28.20;45.70;;;;;;5070932;28;20384;-73
2022/07/24 02:07:42;;;;;;;0.00;0.00;;;28.80;42.20;;;;;;5073070;28;20468;-73
2022/07/24 02:10:08;;;;;;;0.00;0.00;;;29.30;43.20;;;;;;5054821;28;20064;-73
2022/07/24 02:12:35;;;;;;;0.08;0.08;;;29.70;43.70;;;;;;5054871;28;20119;-71
2022/07/24 02:15:01;;;;;;;0.00;0.00;;;29.80;43.30;;;;;;5054666;28;20020;-72
2022/07/24 02:17:27;;;;;;;0.25;0.25;;;30.00;42.00;;;;;;5081582;28;20488;-72
2022/07/24 02:19:53;;;;;;;0.10;0.10;;;30.20;41.30;;;;;;5072639;28;20021;-72
2022/07/24 02:22:19;;;;;;;0.30;0.30;;;30.50;41.30;;;;;;5072578;28;20040;-72
2022/07/24 02:24:45;;;;;;;0.00;0.00;;;30.50;41.40;;;;;;5072582;28;20024;-71
2022/07/24 02:27:11;;;;;;;0.20;0.20;;;30.40;41.30;;;;;;5054581;28;20119;-72
2022/07/24 02:29:37;;;;;;;0.00;0.00;;;30.90;39.80;;;;;;5072710;28;20427;-72
2022/07/24 02:32:03;;;;;;;0.00;0.00;;;31.10;39.10;;;;;;5054436;28;20025;-72
2022/07/24 02:34:29;;;;;;;5.38;0.90;;;31.40;39.90;;;;;;5055187;28;20028;-72
2022/07/24 02:36:55;;;;;;;0.00;0.00;;;31.70;37.60;;;;;;5088806;28;20499;-72
2022/07/24 02:39:21;;;;;;;0.00;0.00;;;31.80;36.70;;;;;;5091560;28;20028;-73
2022/07/24 02:41:47;;;;;;;0.00;0.00;;;32.10;35.70;;;;;;5074115;28;20020;-72
2022/07/24 02:44:13;;;;;;;0.00;0.00;;;32.30;35.50;;;;;;5074252;28;20547;-73
2022/07/24 02:46:39;;;;;;;0.00;0.00;;;32.20;35.00;;;;;;5092435;28;20020;-73
2022/07/24 02:49:05;;;;;;;0.00;0.00;;;32.10;35.20;;;;;;5074024;28;20434;-73
2022/07/24 02:51:31;;;;;;;0.00;0.00;;;32.00;36.80;;;;;;5092145;28;20023;-73
2022/07/24 02:53:57;;;;;;;0.00;0.00;;;32.30;35.90;;;;;;5073697;28;20142;-72
2022/07/24 02:56:23;;;;;;;0.00;0.00;;;32.30;37.10;;;;;;5091342;28;20017;-73
2022/07/24 02:58:49;;;;;;;0.00;0.00;;;32.50;35.50;;;;;;5073594;28;20044;-72
2022/07/24 03:01:15;;;;;;;0.00;0.00;;;32.60;35.60;;;;;;5091753;28;20089;-73
2022/07/24 03:03:41;;;;;;;0.00;0.00;;;32.70;34.60;;;;;;5091903;28;20020;-72
2022/07/24 03:06:07;;;;;;;0.00;0.00;;;33.10;34.20;;;;;;5073885;28;20480;-73
2022/07/24 03:08:33;;;;;;;0.00;0.00;;;33.40;34.30;;;;;;5091963;28;20028;-73
2022/07/24 03:10:59;;;;;;;0.00;0.00;;;33.60;33.80;;;;;;5091766;28;20138;-73
2022/07/24 03:13:25;;;;;;;0.00;0.00;;;33.60;33.50;;;;;;5073696;28;20115;-73
2022/07/24 03:15:51;;;;;;;0.00;0.00;;;33.30;34.50;;;;;;5073717;28;20016;-73
2022/07/24 03:18:17;;;;;;;54.72;21.55;;;33.50;33.80;;;;;;5091796;28;20016;-73
2022/07/24 03:20:43;;;;;;;0.00;0.00;;;33.90;32.90;;;;;;5073647;28;20052;-73
2022/07/24 03:23:09;;;;;;;0.00;0.00;;;34.20;32.40;;;;;;5073507;28;20020;-73
2022/07/24 03:25:35;;;;;;;0.00;0.00;;;34.20;32.30;;;;;;5073707;28;20024;-73
2022/07/24 03:28:01;;;;;;;23.92;1.48;;;34.00;32.40;;;;;;5091733;28;20590;-73
2022/07/24 03:30:27;;;;;;;0.00;0.00;;;33.90;32.70;;;;;;5091071;28;20111;-73
2022/07/24 03:32:53;;;;;;;0.00;0.00;;;34.30;31.90;;;;;;5073315;28;20151;-73
2022/07/24 03:35:19;;;;;;;0.17;0.10;;;34.30;31.70;;;;;;5073423;28;20048;-72
2022/07/24 03:37:48;;;;;;;0.00;0.00;;;33.70;32.00;;;;;;5091708;28;20028;-73
2022/07/24 03:40:14;;;;;;;0.00;0.00;;;33.80;32.20;;;;;;5092210;28;20048;-73
2022/07/24 03:42:41;;;;;;;0.00;0.00;;;33.80;32.10;;;;;;5091755;28;20024;-74
2022/07/24 03:45:07;;;;;;;0.00;0.00;;;34.10;31.60;;;;;;5091519;28;20468;-73
2022/07/24 03:47:33;;;;;;;0.00;0.00;;;34.00;31.60;;;;;;5092652;28;20032;-71
2022/07/24 03:49:59;;;;;;;6.03;2.75;;;34.10;31.70;;;;;;5076960;28;20028;-71
2022/07/24 03:52:25;;;;;;;0.45;0.43;;;34.00;32.00;;;;;;5076657;28;20028;-72
2022/07/24 03:54:52;;;;;;;0.00;0.00;;;34.00;32.00;;;;;;5074189;28;20020;-74
2022/07/24 03:57:18;;;;;;;0.00;0.00;;;33.90;32.20;;;;;;5094823;28;20115;-73
2022/07/24 03:59:44;;;;;;;0.57;0.47;;;33.90;32.30;;;;;;5094936;28;20468;-73
2022/07/24 04:02:10;;;;;;;0.40;0.40;;;34.10;32.20;;;;;;5074407;28;20112;-73
2022/07/24 04:04:36;;;;;;;0.60;0.60;;;34.20;32.10;;;;;;5094726;28;20020;-73
2022/07/24 04:07:02;;;;;;;1.50;1.40;;;34.20;31.90;;;;;;5093011;28;20035;-73
2022/07/24 04:09:28;;;;;;;0.00;0.00;;;34.30;31.70;;;;;;5077967;28;20066;-73
2022/07/24 04:11:54;;;;;;;0.00;0.00;;;34.40;31.70;;;;;;5096628;28;20476;-73
2022/07/24 04:14:20;;;;;;;0.70;0.65;;;34.60;31.60;;;;;;5094752;28;20023;-73
2022/07/24 04:16:47;;;;;;;0.20;0.17;;;34.20;32.00;;;;;;5076536;28;20016;-74
2022/07/24 04:19:13;;;;;;;0.15;0.15;;;34.00;31.90;;;;;;5094306;28;20016;-72
2022/07/24 04:21:40;;;;;;;0.00;0.00;;;34.10;31.90;;;;;;5076420;28;20020;-73
2022/07/24 04:24:06;;;;;;;0.40;0.40;;;34.30;31.80;;;;;;5076382;28;20065;-72
2022/07/24 04:26:32;;;;;;;0.00;0.00;;;34.30;32.00;;;;;;5094023;28;20393;-73
2022/07/24 04:28:58;;;;;;;0.00;0.00;;;34.20;32.30;;;;;;5094574;28;20511;-73
2022/07/24 04:31:24;;;;;;;0.00;0.00;;;34.20;32.20;;;;;;5076499;28;20111;-74
2022/07/24 04:33:50;;;;;;;1.10;1.10;;;33.70;33.10;;;;;;5094734;28;20043;-74
2022/07/24 04:36:16;;;;;;;0.10;0.10;;;33.60;32.50;;;;;;5085846;28;20024;-74
2022/07/24 04:38:43;;;;;;;7.47;0.30;;;33.70;33.10;;;;;;5092623;28;20031;-72
2022/07/24 04:41:09;;;;;;;1.35;1.25;;;33.90;32.30;;;;;;5076791;28;20420;-72
2022/07/24 04:43:35;;;;;;;0.00;0.00;;;33.20;33.50;;;;;;5056244;28;20124;-72
2022/07/24 04:46:01;;;;;;;0.10;0.10;;;33.20;32.70;;;;;;5074270;28;20099;-73
2022/07/24 04:48:27;;;;;;;0.00;0.00;;;33.50;32.00;;;;;;5056383;28;20035;-73
2022/07/24 04:50:53;;;;;;;0.00;0.00;;;33.60;31.40;;;;;;5081434;28;20095;-73
2022/07/24 04:53:19;;;;;;;0.75;0.30;;;33.70;30.90;;;;;;5083184;28;20043;-72
2022/07/24 04:55:45;;;;;;;0.00;0.00;;;33.60;30.30;;;;;;5073238;28;20031;-72
2022/07/24 04:58:11;;;;;;;0.00;0.00;;;33.60;30.10;;;;;;5093691;28;20048;-72
2022/07/24 05:00:37;;;;;;;0.03;0.03;;;33.50;30.50;;;;;;5080166;28;20444;-74
2022/07/24 05:03:03;;;;;;;0.15;0.10;;;33.20;30.80;;;;;;5053960;28;20036;-74
2022/07/24 05:05:29;;;;;;;0.10;0.10;;;33.30;30.80;;;;;;5036030;28;20090;-73
2022/07/24 05:07:55;;;;;;;0.00;0.00;;;33.20;30.50;;;;;;5036887;28;20474;-73
2022/07/24 05:10:21;;;;;;;0.00;0.00;;;33.20;30.50;;;;;;5044459;28;20031;-73
2022/07/24 05:12:47;;;;;;;0.00;0.00;;;33.40;30.30;;;;;;5050575;28;20029;-74
2022/07/24 05:15:13;;;;;;;0.00;0.00;;;33.50;30.60;;;;;;5073712;28;20024;-73
2022/07/24 05:17:39;;;;;;;0.20;0.20;;;33.40;30.80;;;;;;5055989;28;20032;-73
2022/07/24 05:20:06;;;;;;;0.00;0.00;;;33.60;30.80;;;;;;5053865;28;20020;-74
2022/07/24 05:22:32;;;;;;;0.00;0.00;;;33.70;30.70;;;;;;5073552;28;20051;-74
2022/07/24 05:24:58;;;;;;;4.38;3.17;;;33.80;30.30;;;;;;5054974;28;20075;-74
2022/07/24 05:27:24;;;;;;;0.00;0.00;;;33.70;31.40;;;;;;5053499;28;20036;-74
2022/07/24 05:29:50;;;;;;;0.03;0.03;;;33.80;31.10;;;;;;5036588;28;20435;-73
2022/07/24 05:32:16;;;;;;;0.00;0.00;;;34.00;30.80;;;;;;5035402;28;20389;-73
2022/07/24 05:34:42;;;;;;;0.00;0.00;;;34.10;30.40;;;;;;5053460;28;20488;-73
2022/07/24 05:37:09;;;;;;;0.00;0.00;;;33.50;31.50;;;;;;5064413;28;20032;-73
2022/07/24 05:39:35;;;;;;;0.57;0.32;;;33.60;31.20;;;;;;5068267;28;20559;-74
2022/07/24 05:42:03;;;;;;;0.00;0.00;;;33.20;31.20;;;;;;5053261;28;20036;-73
2022/07/24 05:44:29;;;;;;;1.40;0.40;;;33.40;30.70;;;;;;5070287;28;20051;-72
2022/07/24 05:46:55;;;;;;;0.00;0.00;;;33.50;30.10;;;;;;5062171;28;20021;-73
2022/07/24 05:49:21;;;;;;;0.10;0.10;;;33.50;30.10;;;;;;5044448;28;20055;-72
2022/07/24 05:51:47;;;;;;;0.93;0.93;;;33.50;30.20;;;;;;5060203;28;20028;-72
2022/07/24 05:54:13;;;;;;;0.00;0.00;;;33.80;30.40;;;;;;5082209;28;20484;-73
2022/07/24 05:56:39;;;;;;;0.00;0.00;;;33.90;30.00;;;;;;5083174;28;20059;-72
2022/07/24 05:59:05;;;;;;;0.00;0.00;;;33.40;30.40;;;;;;5099750;28;20019;-72
2022/07/24 06:01:32;;;;;;;0.00;0.00;;;33.20;30.30;;;;;;5102112;28;20020;-72
2022/07/24 06:03:58;;;;;;;0.00;0.00;;;33.50;30.40;;;;;;5084111;28;20450;-73
2022/07/24 06:06:24;;;;;;;0.00;0.00;;;33.60;29.90;;;;;;5084988;28;20040;-75
2022/07/24 06:08:50;;;;;;;0.10;0.10;;;33.80;30.10;;;;;;5100334;28;20040;-74
2022/07/24 06:11:17;;;;;;;0.00;0.00;;;33.90;30.60;;;;;;5087395;28;20109;-73
2022/07/24 06:13:43;;;;;;;0.00;0.00;;;34.10;31.10;;;;;;5099066;28;20019;-73
2022/07/24 06:16:09;;;;;;;0.00;0.00;;;34.20;30.60;;;;;;5103503;28;20428;-73
2022/07/24 06:18:36;;;;;;;0.00;0.00;;;34.40;30.80;;;;;;5083139;28;20099;-73
2022/07/24 06:21:02;;;;;;;0.00;0.00;;;34.50;30.00;;;;;;5101067;28;20024;-74
2022/07/24 06:23:28;;;;;;;0.10;0.10;;;34.60;30.70;;;;;;5082672;28;20067;-73
2022/07/24 06:25:54;;;;;;;0.70;0.40;;;34.70;30.70;;;;;;5094245;28;20056;-73
2022/07/24 06:28:20;;;;;;;0.00;0.00;;;34.70;30.10;;;;;;5093847;28;20031;-73
2022/07/24 06:30:46;;;;;;;0.00;0.00;;;34.70;30.10;;;;;;5095698;28;20023;-73
2022/07/24 06:33:12;;;;;;;0.00;0.00;;;34.30;31.40;;;;;;5078579;28;20365;-74
2022/07/24 06:35:38;;;;;;;0.20;0.20;;;34.50;31.50;;;;;;5097202;28;20091;-74
2022/07/24 06:38:04;;;;;;;0.00;0.00;;;34.60;31.60;;;;;;5100394;28;20035;-73
2022/07/24 06:40:30;;;;;;;0.00;0.00;;;34.90;30.50;;;;;;5101033;28;20535;-73
2022/07/24 06:42:56;;;;;;;0.00;0.00;;;35.10;29.70;;;;;;5083481;28;20510;-73
2022/07/24 06:45:22;;;;;;;0.20;0.15;;;34.90;29.70;;;;;;5096988;28;20052;-73
2022/07/24 06:47:48;;;;;;;0.00;0.00;;;35.20;29.80;;;;;;5084153;28;20028;-73
2022/07/24 06:50:14;;;;;;;0.00;0.00;;;34.80;30.00;;;;;;5083525;28;20020;-73
2022/07/24 06:52:41;;;;;;;0.00;0.00;;;35.00;30.70;;;;;;5101562;28;20548;-73
2022/07/24 06:55:07;;;;;;;0.00;0.00;;;35.10;29.30;;;;;;5085237;28;20020;-73
2022/07/24 06:57:34;;;;;;;20.52;2.53;;;35.30;29.40;;;;;;5083434;28;20404;-73
2022/07/24 07:00:00;;;;;;;0.00;0.00;;;35.50;29.70;;;;;;5101606;28;20546;-73
2022/07/24 07:02:26;;;;;;;0.00;0.00;;;35.60;29.90;;;;;;5101292;28;20059;-75
2022/07/24 07:04:52;;;;;;;0.35;0.35;;;34.90;29.80;;;;;;5100135;28;20103;-73
2022/07/24 07:07:18;;;;;;;0.00;0.00;;;35.10;29.60;;;;;;5082642;28;20547;-73
2022/07/24 07:09:45;;;;;;;0.00;0.00;;;35.30;29.20;;;;;;5099820;28;20114;-73
2022/07/24 07:12:11;;;;;;;0.00;0.00;;;35.00;29.70;;;;;;5080738;28;20032;-73
2022/07/24 07:14:37;;;;;;;0.05;0.05;;;35.00;29.90;;;;;;5085119;28;20371;-73
2022/07/24 07:17:03;;;;;;;0.73;0.73;;;35.10;30.00;;;;;;5102416;28;20024;-73
2022/07/24 07:19:29;;;;;;;0.00;0.00;;;35.10;30.20;;;;;;5109743;28;20407;-74
2022/07/24 07:21:55;;;;;;;0.00;0.00;;;34.60;30.40;;;;;;5109767;28;20380;-74
2022/07/24 07:24:21;;;;;;;0.00;0.00;;;34.70;30.10;;;;;;5077984;28;20491;-74
2022/07/24 07:26:47;;;;;;;6.38;5.82;;;34.90;30.00;;;;;;5081690;28;20519;-74
2022/07/24 07:29:13;;;;;;;0.00;0.00;;;34.90;30.30;;;;;;5101854;28;20050;-74
2022/07/24 07:31:41;;;;;;;0.00;0.00;;;35.10;31.20;;;;;;5086550;28;20111;-73
2022/07/24 07:34:08;;;;;;;0.00;0.00;;;35.30;31.10;;;;;;5108025;28;20103;-74
2022/07/24 07:36:34;;;;;;;0.00;0.00;;;35.10;31.80;;;;;;5105504;28;20023;-73
2022/07/24 07:39:00;;;;;;;11.25;6.40;;;35.50;32.10;;;;;;5106821;28;20062;-73
2022/07/24 07:41:26;;;;;;;0.00;0.00;;;35.80;30.80;;;;;;5106305;28;20020;-74
2022/07/24 07:43:52;;;;;;;0.10;0.10;;;36.30;30.20;;;;;;5089162;28;20020;-73
2022/07/24 07:46:19;;;;;;;0.10;0.10;;;36.00;30.50;;;;;;5086502;28;20092;-72
2022/07/24 07:48:45;;;;;;;0.00;0.00;;;36.10;30.40;;;;;;5106371;28;20031;-73
2022/07/24 07:51:11;;;;;;;0.20;0.20;;;36.30;29.80;;;;;;5087173;28;20016;-74
2022/07/24 07:53:37;;;;;;;0.00;0.00;;;36.40;30.00;;;;;;5104037;28;20031;-74
2022/07/24 07:56:05;;;;;;;0.25;0.20;;;36.40;30.00;;;;;;5095932;28;20383;-74
2022/07/24 07:58:31;;;;;;;3.72;3.63;;;35.90;30.50;;;;;;5105011;28;20071;-73
2022/07/24 08:00:57;;;;;;;0.03;0.03;;;36.40;30.70;;;;;;5115808;28;20020;-72
2022/07/24 08:03:23;;;;;;;0.00;0.00;;;36.70;30.30;;;;;;5115751;28;20519;-74
2022/07/24 08:05:50;;;;;;;0.10;0.10;;;36.80;30.00;;;;;;5115823;28;20103;-74
2022/07/24 08:08:16;;;;;;;0.00;0.00;;;36.90;29.70;;;;;;5115829;28;20016;-74
2022/07/24 08:10:42;;;;;;;0.00;0.00;;;36.10;29.90;;;;;;5095820;28;20028;-73
2022/07/24 08:13:09;;;;;;;0.00;0.00;;;35.90;30.10;;;;;;5095476;28;20097;-74
2022/07/24 08:15:35;;;;;;;0.00;0.00;;;36.00;30.40;;;;;;5076858;28;20028;-73
2022/07/24 08:18:01;;;;;;;0.20;0.20;;;36.40;30.00;;;;;;5096698;28;20032;-73
2022/07/24 08:20:28;;;;;;;0.00;0.00;;;36.70;29.60;;;;;;5095692;28;20020;-74
2022/07/24 08:22:54;;;;;;;0.52;0.30;;;36.80;29.30;;;;;;5075377;28;20422;-73
2022/07/24 08:25:21;;;;;;;0.00;0.00;;;36.90;29.50;;;;;;5090823;28;20024;-73
2022/07/24 08:27:47;;;;;;;0.10;0.10;;;37.00;29.70;;;;;;5077182;28;20036;-73
2022/07/24 08:30:14;;;;;;;0.00;0.00;;;36.70;29.70;;;;;;5082054;28;20031;-73
2022/07/24 08:32:41;;;;;;;0.00;0.00;;;37.00;30.00;;;;;;5094362;28;20027;-74
2022/07/24 08:35:07;;;;;;;0.10;0.10;;;36.90;29.50;;;;;;5069688;28;20117;-73
2022/07/24 08:37:37;;;;;;;0.13;0.13;;;36.70;28.80;;;;;;5070457;28;20430;-74
2022/07/24 08:40:05;;;;;;;0.75;0.75;;;37.10;28.90;;;;;;5091976;28;20385;-72
2022/07/24 08:42:31;;;;;;;0.10;0.10;;;37.40;28.70;;;;;;5075808;28;20499;-72
2022/07/24 08:44:57;;;;;;;0.63;0.63;;;36.70;29.00;;;;;;5094471;28;20097;-73
2022/07/24 08:47:26;;;;;;;0.00;0.00;;;36.40;29.40;;;;;;5094342;28;20020;-73
2022/07/24 08:49:57;;;;;;;0.10;0.10;;;36.60;30.60;;;;;;5094629;28;20031;-73
2022/07/24 08:52:24;;;;;;;0.10;0.10;;;36.80;29.60;;;;;;5093809;28;20191;-73
2022/07/24 08:54:50;;;;;;;0.00;0.00;;;36.80;29.30;;;;;;5074317;28;20070;-73
2022/07/24 08:57:17;;;;;;;0.00;0.00;;;37.20;28.90;;;;;;5074681;28;20035;-73
2022/07/24 08:59:43;;;;;;;0.00;0.00;;;37.10;29.70;;;;;;5097650;28;20027;-73
2022/07/24 09:02:09;;;;;;;0.00;0.00;;;37.00;28.80;;;;;;5078184;28;20036;-73
2022/07/24 09:04:39;;;;;;;0.05;0.05;;;37.10;28.30;;;;;;5065338;28;20035;-73
2022/07/24 09:07:11;;;;;;;0.00;0.00;;;37.40;27.80;;;;;;5094412;28;20023;-73
2022/07/24 09:09:39;;;;;;;0.17;0.10;;;37.60;28.10;;;;;;5077108;28;20024;-72
2022/07/24 09:12:12;;;;;;;0.00;0.00;;;37.40;28.20;;;;;;5089235;28;20023;-72
2022/07/24 09:14:41;;;;;;;0.80;0.15;;;37.10;28.50;;;;;;5070359;28;20025;-72
2022/07/24 09:17:16;;;;;;;0.00;0.00;;;36.70;28.30;;;;;;5063941;28;20122;-72
2022/07/24 09:19:48;;;;;;;0.00;0.00;;;36.40;28.50;;;;;;5090898;28;20032;-73
2022/07/24 09:22:24;;;;;;;0.00;0.00;;;36.70;28.20;;;;;;5065575;28;20134;-73
2022/07/24 09:25:14;;;;;;;0.57;0.40;;;37.00;28.50;;;;;;5068368;28;20024;-74
2022/07/24 09:28:02;;;;;;;0.00;0.00;;;37.30;27.70;;;;;;5072164;28;20030;-74
2022/07/24 09:30:31;;;;;;;0.00;0.00;;;37.10;27.80;;;;;;5072238;28;20059;-73
2022/07/24 09:33:21;;;;;;;0.00;0.00;;;37.00;27.70;;;;;;5087939;28;20078;-72
2022/07/24 09:35:54;;;;;;;0.00;0.00;;;37.20;27.60;;;;;;5075770;28;20107;-71
2022/07/24 09:38:25;;;;;;;0.00;0.00;;;37.40;27.40;;;;;;5070602;28;20058;-72
2022/07/24 09:40:56;;;;;;;0.00;0.00;;;37.50;26.00;;;;;;5082996;28;20499;-72
2022/07/24 09:43:28;;;;;;;0.00;0.00;;;37.40;25.40;;;;;;5083330;28;20035;-73
2022/07/24 09:46:00;;;;;;;0.00;0.00;;;37.60;25.80;;;;;;5067413;28;20568;-72
2022/07/24 09:48:31;;;;;;;1.38;1.35;;;37.60;26.20;;;;;;5089435;28;20097;-73
2022/07/24 09:51:04;;;;;;;0.00;0.00;;;37.20;25.70;;;;;;5080462;28;20024;-73
2022/07/24 09:53:32;;;;;;;0.00;0.00;;;37.40;26.20;;;;;;5084488;28;20031;-73
2022/07/24 09:56:11;;;;;;;0.00;0.00;;;37.40;26.00;;;;;;5084560;28;20031;-72
2022/07/24 09:58:51;;;;;;;0.00;0.00;;;37.30;26.20;;;;;;5086544;28;20541;-72
2022/07/24 10:01:19;;;;;;;0.00;0.00;;;37.30;26.30;;;;;;5092425;28;20035;-72
2022/07/24 10:03:47;;;;;;;0.68;0.68;;;37.30;26.20;;;;;;5077054;28;20040;-74
2022/07/24 10:06:17;;;;;;;0.00;0.00;;;37.30;26.30;;;;;;5068909;28;20020;-73
2022/07/24 10:08:46;;;;;;;0.00;0.00;;;37.40;26.30;;;;;;5063859;28;20061;-72
2022/07/24 10:11:13;;;;;;;0.00;0.00;;;37.40;25.90;;;;;;5082456;28;20020;-73
2022/07/24 10:13:39;;;;;;;0.00;0.00;;;37.50;26.30;;;;;;5058309;28;20037;-71
2022/07/24 10:16:28;;;;;;;0.10;0.10;;;37.80;25.90;;;;;;5080139;28;20091;-74
2022/07/24 10:19:04;;;;;;;0.20;0.20;;;37.60;25.70;;;;;;5084775;28;20020;-72
2022/07/24 10:21:33;;;;;;;0.03;0.03;;;37.30;26.30;;;;;;5087371;28;20012;-72
2022/07/24 10:24:02;;;;;;;0.10;0.10;;;36.90;26.20;;;;;;5072746;28;20477;-76
2022/07/24 10:26:37;;;;;;;0.10;0.10;;;37.10;25.90;;;;;;5086714;28;20044;-71
2022/07/24 10:29:14;;;;;;;0.00;0.00;;;37.50;25.90;;;;;;5091536;28;20012;-76
2022/07/24 10:31:45;;;;;;;0.40;0.40;;;37.70;25.90;;;;;;5072192;28;20451;-73
2022/07/24 10:34:39;;;;;;;0.10;0.10;;;37.70;26.10;;;;;;5088168;28;20484;-73
2022/07/24 10:37:20;;;;;;;0.00;0.00;;;38.00;26.10;;;;;;5066454;28;20027;-71
2022/07/24 10:40:03;;;;;;;0.00;0.00;;;37.80;25.20;;;;;;5076901;28;20052;-73
2022/07/24 10:42:29;;;;;;;0.17;0.15;;;37.40;25.90;;;;;;5086141;28;20055;-74
2022/07/24 10:45:18;;;;;;;0.00;0.00;;;37.10;26.70;;;;;;5074528;28;20063;-73
2022/07/24 10:47:46;;;;;;;0.10;0.10;;;37.20;27.30;;;;;;5074983;28;20031;-73
2022/07/24 10:50:14;;;;;;;0.80;0.60;;;36.70;26.90;;;;;;5074474;28;20098;-73
2022/07/24 10:52:41;;;;;;;0.10;0.10;;;36.30;27.30;;;;;;5074177;28;20058;-73
2022/07/24 10:55:26;;;;;;;0.00;0.00;;;36.50;28.30;;;;;;5074357;28;20027;-73
2022/07/24 10:58:01;;;;;;;0.00;0.00;;;36.90;27.00;;;;;;5073965;28;20048;-73
2022/07/24 11:00:34;;;;;;;0.00;0.00;;;36.60;27.80;;;;;;5076483;28;20021;-73
2022/07/24 11:03:23;;;;;;;0.00;0.00;;;36.60;27.60;;;;;;5070649;28;20023;-72
2022/07/24 11:06:08;;;;;;;0.00;0.00;;;36.80;27.10;;;;;;5064736;28;20156;-73
2022/07/24 11:08:51;;;;;;;0.10;0.10;;;37.10;27.40;;;;;;5056134;28;20108;-72
2022/07/24 11:11:19;;;;;;;0.00;0.00;;;37.60;26.70;;;;;;5056273;28;20031;-72
2022/07/24 11:13:48;;;;;;;0.00;0.00;;;37.20;26.40;;;;;;5058112;28;20036;-73
2022/07/24 11:16:19;;;;;;;0.08;0.03;;;36.90;26.80;;;;;;5070089;28;20109;-73
2022/07/24 11:18:55;;;;;;;0.10;0.10;;;36.50;27.40;;;;;;5056920;28;20027;-73
2022/07/24 11:21:36;;;;;;;0.00;0.00;;;36.30;27.40;;;;;;5059455;28;20074;-74
2022/07/24 11:26:48;;;;;;;0.00;0.00;;;36.70;26.90;;;;;;5068410;28;20029;-73
2022/07/24 11:29:18;;;;;;;0.00;0.00;;;36.30;27.70;;;;;;5066654;28;20512;-73
2022/07/24 11:31:46;;;;;;;0.00;0.00;;;36.00;28.20;;;;;;5068470;28;20103;-74
2022/07/24 11:34:13;;;;;;;0.00;0.00;;;35.80;27.60;;;;;;5055642;28;20029;-74
2022/07/24 11:36:47;;;;;;;0.00;0.00;;;36.10;28.50;;;;;;5054859;28;20515;-74
2022/07/24 11:39:15;;;;;;;0.00;0.00;;;36.20;30.00;;;;;;5070956;28;20029;-74
2022/07/24 11:41:47;;;;;;;0.00;0.00;;;36.10;27.80;;;;;;5072671;28;20020;-74
2022/07/24 11:44:21;;;;;;;0.00;0.00;;;36.30;28.20;;;;;;5066897;28;20119;-74
2022/07/24 11:46:47;;;;;;;0.00;0.00;;;36.40;27.90;;;;;;5057910;28;20171;-74
2022/07/24 11:49:14;;;;;;;0.00;0.00;;;36.60;28.30;;;;;;5061810;28;20060;-74
2022/07/24 11:51:45;;;;;;;0.00;0.00;;;36.70;28.10;;;;;;5063585;28;20456;-74
2022/07/24 11:54:14;;;;;;;0.00;0.00;;;36.90;27.00;;;;;;5066463;28;20025;-74
2022/07/24 11:56:40;;;;;;;1.75;0.80;;;36.80;29.40;;;;;;5075686;28;20108;-75
2022/07/24 11:59:26;;;;;;;0.00;0.00;;;36.50;28.90;;;;;;5089298;28;20063;-73
2022/07/24 12:02:06;;;;;;;0.00;0.00;;;36.60;28.30;;;;;;5091425;28;20384;-74
2022/07/24 12:04:33;;;;;;;0.00;0.00;;;36.80;28.40;;;;;;5075999;28;20020;-73
2022/07/24 12:07:00;;;;;;;0.00;0.00;;;36.60;29.40;;;;;;5072915;28;20024;-73
2022/07/24 12:09:27;;;;;;;0.00;0.00;;;36.40;28.90;;;;;;5088707;28;20140;-73
2022/07/24 12:11:53;;;;;;;0.00;0.00;;;36.40;28.90;;;;;;5077829;28;20027;-73
2022/07/24 12:14:21;;;;;;;0.00;0.00;;;36.40;29.30;;;;;;5080084;28;20036;-73
2022/07/24 12:16:54;;;;;;;0.00;0.00;;;36.50;29.40;;;;;;5064895;28;20058;-73
2022/07/24 12:19:23;;;;;;;0.00;0.00;;;36.50;29.70;;;;;;5075053;28;20028;-73
2022/07/24 12:21:51;;;;;;;0.00;0.00;;;36.60;29.30;;;;;;5066336;28;20025;-74
2022/07/24 12:24:18;;;;;;;0.00;0.00;;;36.70;29.40;;;;;;5084191;28;20557;-73
2022/07/24 12:26:56;;;;;;;0.00;0.00;;;36.70;29.10;;;;;;5082864;28;20492;-74
2022/07/24 12:29:24;;;;;;;0.00;0.00;;;36.70;29.50;;;;;;5091236;28;20476;-73
2022/07/24 12:32:12;;;;;;;0.00;0.00;;;36.10;28.80;;;;;;5084038;28;20028;-74
2022/07/24 12:34:47;;;;;;;0.00;0.00;;;36.30;31.80;;;;;;5080380;28;20397;-73
2022/07/24 12:37:18;;;;;;;0.00;0.00;;;36.50;28.60;;;;;;5079523;28;20021;-72
2022/07/24 12:39:48;;;;;;;0.00;0.00;;;36.30;28.40;;;;;;5113855;28;20062;-72
2022/07/24 12:42:14;;;;;;;0.03;0.03;;;36.20;28.50;;;;;;5096795;28;20043;-74
2022/07/24 12:44:43;;;;;;;0.22;0.22;;;36.30;28.30;;;;;;5081944;28;20451;-74
2022/07/24 12:47:09;;;;;;;0.00;0.00;;;36.30;28.20;;;;;;5063756;28;20476;-73
2022/07/24 12:49:50;;;;;;;0.00;0.00;;;36.20;28.60;;;;;;5074225;28;20025;-73
2022/07/24 12:52:28;;;;;;;0.00;0.00;;;36.20;28.40;;;;;;5056272;28;20025;-72